Latest Weather Observations for Karratha

IDW60801

Issued at 9:03 am WST Saturday 1 October 2016 (issued every 30 minutes, with the page automatically refreshed every 10 minutes)

About weather observations | Map of weather stations | Latest weather observations for WA | Other Formats
Station Details ID: 004083 Name: KARRATHA AERO Lat: -20.71 Lon: 116.77 Height: 5.3 m
Data from the previous 72 hours. | See also: Recent months at Karratha
Date/Time
WST
Temp
°C
App
Temp
°C
Dew
Point
°C
Rel
Hum
%
Delta-T
°C
Wind Press
QNH
hPa
Press
MSL
hPa
Rain since
9am
mm
Dir  Spd
km/h
Gust
km/h
Spd
kts
Gust
kts
01/09:00am 20.5 19.8 17.3 82 2.0 WSW 17 20 9 11 1011.5 1011.5 -
01/08:30am 20.6 19.8 17.2 81 2.1 WSW 17 20 9 11 1011.3 1011.3 -
01/08:00am 20.7 20.7 18.1 85 1.6 WSW 15 20 8 11 1011.0 1011.0 -
01/07:30am 20.7 21.3 19.5 93 0.8 WSW 15 17 8 9 1010.7 1010.7 -
01/07:00am 20.4 21.3 19.2 93 0.8 WSW 13 17 7 9 1010.4 1010.4 -
01/06:30am 20.4 21.8 19.6 95 0.5 WSW 11 17 6 9 1010.0 1010.0 -
01/06:00am 20.3 20.6 19.6 96 0.4 WSW 17 22 9 12 1009.9 1009.9 -
01/05:37am 20.1 21.8 20.1 100 0.0 SW 11 15 6 8 1009.7 1009.7 -
01/05:30am 20.0 21.2 20.0 100 0.0 SW 13 15 7 8 1009.6 1009.6 -
01/05:25am 20.0 21.2 20.0 100 0.0 SW 13 17 7 9 1009.7 1009.7 -
01/05:00am 20.2 21.9 20.2 100 0.0 SW 11 13 6 7 1009.3 1009.3 -
01/04:30am 20.2 21.2 20.2 100 0.0 SW 15 19 8 10 1009.4 1009.4 -
01/04:22am 20.1 20.6 20.1 100 0.0 WSW 17 20 9 11 1009.4 1009.4 -
01/04:12am 20.2 20.4 20.2 100 0.0 WSW 19 20 10 11 1009.4 1009.4 -
01/04:00am 20.0 20.5 20.0 100 0.0 WSW 17 22 9 12 1009.4 1009.4 -
01/03:30am 20.8 20.7 20.8 100 0.0 W 22 28 12 15 1009.4 1009.4 -
01/03:25am 21.3 22.1 21.3 100 0.0 W 19 22 10 12 1009.3 1009.3 -
01/03:22am 21.4 22.6 21.4 100 0.0 W 17 22 9 12 1009.3 1009.3 -
01/03:05am 21.2 22.7 21.2 100 0.0 W 15 19 8 10 1009.2 1009.2 -
01/03:00am 21.2 22.3 21.2 100 0.0 W 17 20 9 11 1009.3 1009.3 2.0
01/02:44am 21.1 23.3 21.1 100 0.0 WSW 11 15 6 8 1009.3 1009.3 -
01/02:30am 20.8 21.3 20.8 100 0.0 WSW 19 24 10 13 1009.3 1009.3 -
01/02:22am 21.0 21.0 21.0 100 0.0 WSW 22 28 12 15 1009.3 1009.3 -
01/02:00am 22.0 24.2 21.8 99 0.1 NW 13 17 7 9 1009.4 1009.4 -
01/01:30am 22.0 24.5 21.7 98 0.2 NW 11 13 6 7 1009.3 1009.3 -
01/01:00am 22.1 25.5 21.6 97 0.3 NW 6 7 3 4 1009.6 1009.6 -
01/12:30am 21.9 25.0 21.4 97 0.3 NNW 7 11 4 6 1009.9 1009.9 -
01/12:00am 22.3 25.8 21.1 93 0.8 NNW 4 9 2 5 1010.0 1010.0 -
 
Date/Time
WST
Temp
°C
App
Temp
°C
Dew
Point
°C
Rel
Hum
%
Delta-T
°C
Wind Press
QNH
hPa
Press
MSL
hPa
Rain since
9am
mm
Dir  Spd
km/h
Gust
km/h
Spd
kts
Gust
kts
30/11:30pm 22.2 26.1 21.2 94 0.7 NNE 2 6 1 3 1010.0 1010.0 -
30/11:24pm 22.2 25.8 21.2 94 0.7 NNE 4 6 2 3 1010.0 1010.0 -
30/11:05pm 22.2 26.4 21.0 93 0.8 CALM 0 0 0 0 1010.1 1010.1 -
30/11:00pm 22.2 26.4 21.0 93 0.8 CALM 0 0 0 0 1010.0 1010.0 -
30/10:30pm 22.2 25.1 21.0 93 0.8 N 7 11 4 6 1010.4 1010.4 -
30/10:00pm 22.2 24.3 21.0 93 0.8 N 11 13 6 7 1010.5 1010.5 -
30/09:30pm 22.2 23.9 21.0 93 0.8 N 13 17 7 9 1010.5 1010.5 -
30/09:00pm 22.1 24.6 21.1 94 0.7 NNE 9 11 5 6 1010.3 1010.3 0.8
30/08:30pm 22.0 24.2 21.2 95 0.5 NE 11 13 6 7 1010.1 1010.1 -
30/08:00pm 21.8 23.9 21.0 95 0.5 ENE 11 11 6 6 1009.7 1009.7 -
30/07:30pm 21.8 24.3 21.0 95 0.5 ENE 9 11 5 6 1009.8 1009.8 -
30/07:00pm 21.8 24.7 21.0 95 0.5 ENE 7 9 4 5 1009.5 1009.5 -
30/06:30pm 21.7 24.2 21.0 96 0.5 E 9 11 5 6 1009.2 1009.2 -
30/06:00pm 21.6 24.4 20.9 96 0.5 SE 7 9 4 5 1009.1 1009.1 -
30/05:30pm 21.6 24.7 21.1 97 0.3 SSE 6 9 3 5 1009.0 1009.0 -
30/05:00pm 21.7 23.8 21.0 96 0.5 SE 11 13 6 7 1008.4 1008.4 -
30/04:30pm 21.5 23.8 21.3 99 0.1 SSE 11 13 6 7 1008.6 1008.6 -
30/04:14pm 21.3 23.1 21.1 99 0.1 S 13 15 7 8 1008.8 1008.8 -
30/04:00pm 21.4 23.2 21.2 99 0.1 S 13 15 7 8 1008.8 1008.8 -
30/03:59pm 21.2 22.9 21.0 99 0.1 S 13 15 7 8 1008.7 1008.7 -
30/03:54pm 21.3 23.1 21.1 99 0.1 S 13 17 7 9 1008.8 1008.8 -
30/03:30pm 21.6 22.9 20.8 95 0.5 S 15 17 8 9 1008.8 1008.8 -
30/03:00pm 21.6 22.0 20.6 94 0.6 SSW 19 24 10 13 1009.0 1009.0 -
30/02:30pm 23.9 23.7 19.4 76 2.9 W 19 22 10 12 1009.0 1009.0 -
30/02:00pm 24.2 25.0 19.1 73 3.3 W 13 19 7 10 1009.0 1009.0 -
30/01:30pm 24.5 24.9 19.1 72 3.4 W 15 20 8 11 1009.2 1009.2 -
30/01:00pm 24.0 25.3 19.3 75 3.0 NW 11 15 6 8 1009.2 1009.2 -
30/12:30pm 23.2 24.2 19.4 79 2.4 NNW 13 17 7 9 1009.4 1009.4 -
30/12:00pm 24.0 24.7 18.9 73 3.2 N 13 17 7 9 1009.8 1009.8 -
30/11:30am 25.0 26.5 20.5 76 2.9 NNW 13 19 7 10 1010.4 1010.4 -
30/11:00am 25.4 26.6 20.0 72 3.5 WNW 13 17 7 9 1010.9 1010.9 -
30/10:00am 24.9 27.1 20.4 76 2.9 WNW 9 13 5 7 1011.4 1011.4 0.0
30/09:30am 24.9 27.3 19.7 73 3.4 NW 6 9 3 5 1011.6 1011.6 0.0
30/09:00am 24.5 26.9 19.6 74 3.2 NNW 6 9 3 5 1011.5 1011.5 0.2
30/08:30am 24.2 27.1 19.9 77 2.8 WSW 4 9 2 5 1011.3 1011.3 0.2
30/08:00am 23.7 25.5 19.6 78 2.6 SSW 9 11 5 6 1010.8 1010.8 0.2
30/07:30am 22.7 24.8 20.2 86 1.6 SW 9 11 5 6 1010.7 1010.7 0.2
30/07:00am 22.4 24.6 20.3 88 1.4 SSW 9 11 5 6 1010.5 1010.5 0.2
30/06:30am 22.1 24.1 20.0 88 1.3 WSW 9 11 5 6 1010.3 1010.3 0.2
30/06:00am 22.1 24.5 20.0 88 1.3 WSW 7 9 4 5 1009.9 1009.9 0.2
30/05:30am 22.2 24.6 19.6 85 1.7 WSW 6 7 3 4 1009.6 1009.6 0.0
30/05:00am 22.5 23.6 18.9 80 2.3 SW 11 13 6 7 1009.6 1009.6 0.0
30/04:30am 22.6 23.6 18.6 78 2.5 SW 11 15 6 8 1009.6 1009.6 0.0
30/04:00am 22.6 23.7 18.8 79 2.4 SW 11 15 6 8 1009.9 1009.9 0.0
30/03:30am 22.4 22.7 18.8 80 2.3 SW 15 17 8 9 1010.0 1010.0 0.0
30/03:00am 22.2 22.5 18.8 81 2.1 SW 15 19 8 10 1010.3 1010.3 0.0
30/02:30am 22.0 22.9 18.4 80 2.3 SW 11 13 6 7 1010.1 1010.1 0.0
30/02:00am 21.8 21.3 17.8 78 2.5 SW 17 19 9 10 1010.3 1010.3 0.0
30/01:30am 22.5 23.5 17.8 75 2.9 WSW 9 13 5 7 1009.9 1009.9 0.0
30/01:00am 23.3 25.5 19.2 78 2.6 WNW 6 9 3 5 1010.1 1010.1 0.0
30/12:30am 23.4 26.0 19.3 78 2.6 NW 4 9 2 5 1010.5 1010.5 0.0
30/12:00am 23.7 25.6 19.0 75 3.0 NW 7 11 4 6 1010.8 1010.8 0.0
 
Date/Time
WST
Temp
°C
App
Temp
°C
Dew
Point
°C
Rel
Hum
%
Delta-T
°C
Wind Press
QNH
hPa
Press
MSL
hPa
Rain since
9am
mm
Dir  Spd
km/h
Gust
km/h
Spd
kts
Gust
kts
29/11:30pm 23.9 25.7 18.8 73 3.2 NW 7 11 4 6 1011.1 1011.1 0.0
29/11:00pm 24.1 25.3 18.3 70 3.7 WNW 9 11 5 6 1011.4 1011.4 0.0
29/10:30pm 24.4 25.2 18.1 68 4.0 NNW 11 15 6 8 1011.6 1011.6 0.0
29/10:00pm 24.9 25.2 17.1 62 4.8 NNW 11 15 6 8 1011.6 1011.6 0.0
29/09:30pm 25.0 24.9 15.9 57 5.5 NNW 11 15 6 8 1011.6 1011.6 0.0
29/09:00pm 23.8 25.6 15.6 60 4.9 CALM 0 0 0 0 1011.7 1011.7 0.0
29/08:30pm 24.5 25.0 16.5 61 4.9 NNW 9 13 5 7 1011.4 1011.4 0.0
29/08:00pm 24.8 25.0 15.7 57 5.5 NNW 9 13 5 7 1011.4 1011.4 0.0
29/07:30pm 24.8 24.7 14.9 54 5.9 NNW 9 15 5 8 1011.2 1011.2 0.0
29/07:00pm 24.9 23.6 15.8 57 5.5 NW 17 20 9 11 1010.9 1010.9 0.0
29/06:30pm 25.3 23.2 9.6 37 8.6 NE 11 15 6 8 1010.6 1010.6 0.0
29/06:00pm 26.1 23.5 9.5 35 9.1 NNE 13 20 7 11 1010.2 1010.2 0.0
29/05:30pm 26.9 23.0 8.8 32 9.9 NNE 19 26 10 14 1010.0 1010.0 0.0
29/05:00pm 27.7 23.1 6.5 26 11.2 NNE 20 26 11 14 1009.8 1009.8 0.0
29/04:30pm 27.1 22.8 9.5 33 9.7 NNE 22 28 12 15 1009.7 1009.7 0.0
29/04:00pm 27.8 24.1 11.4 36 9.4 NNE 22 28 12 15 1009.7 1009.7 0.0
29/03:30pm 27.3 23.4 12.1 39 8.8 NNE 24 28 13 15 1009.7 1009.7 0.0
29/03:00pm 27.6 22.3 9.9 33 9.9 NNE 28 33 15 18 1009.8 1009.8 0.0
29/02:30pm 27.9 23.4 11.5 36 9.4 NE 26 33 14 18 1010.3 1010.3 0.0
29/02:00pm 27.7 23.3 12.9 40 8.7 NNE 28 35 15 19 1010.7 1010.7 0.0
29/01:30pm 27.1 21.1 8.5 31 10.1 NE 30 37 16 20 1010.9 1010.9 0.0
29/01:00pm 28.9 22.2 5.7 23 12.1 NE 30 37 16 20 1011.1 1011.1 0.0
29/12:30pm 28.5 21.6 6.6 25 11.6 NE 32 39 17 21 1011.7 1011.7 0.0
29/12:00pm 28.7 21.9 6.7 25 11.7 NE 32 39 17 21 1011.9 1011.9 0.0
29/11:30am 28.8 21.0 2.9 19 12.9 ENE 33 43 18 23 1012.4 1012.4 0.0
29/11:00am 28.1 21.1 6.2 25 11.5 ENE 32 39 17 21 1012.7 1012.7 0.0
29/10:30am 28.7 21.0 3.5 20 12.7 ENE 33 43 18 23 1013.0 1013.0 0.0
29/10:00am 28.8 20.2 0.5 16 13.5 ENE 35 48 19 26 1013.1 1013.1 0.0
29/09:30am 28.4 20.2 0.2 16 13.4 E 33 44 18 24 1013.2 1013.2 0.0
29/09:00am 27.8 19.6 -1.2 15 13.3 E 32 43 17 23 1013.3 1013.3 0.0
29/08:30am 26.4 18.0 -1.4 16 12.6 E 33 43 18 23 1013.3 1013.3 0.0
29/08:00am 25.7 18.1 -2.0 16 12.3 E 28 35 15 19 1013.1 1013.1 0.0
29/07:30am 24.8 17.5 -2.7 16 12.0 E 26 33 14 18 1012.8 1012.8 0.0
29/07:00am 24.1 18.1 -1.7 18 11.4 ESE 20 28 11 15 1012.4 1012.4 0.0
29/06:30am 20.6 17.9 5.8 38 7.4 E 9 11 5 6 1012.2 1012.2 0.0
29/06:00am 19.0 15.9 7.4 47 5.9 E 13 13 7 7 1011.9 1011.9 0.0
29/05:30am 20.2 17.1 7.2 43 6.6 ESE 13 17 7 9 1011.6 1011.6 0.0
29/05:00am 18.9 17.5 11.0 60 4.3 ESE 9 15 5 8 1011.3 1011.3 0.0
29/04:30am 18.4 16.5 11.9 66 3.6 ESE 13 15 7 8 1011.2 1011.2 0.0
29/04:00am 17.8 16.6 12.9 73 2.7 E 11 13 6 7 1010.9 1010.9 0.0
29/03:30am 18.1 17.2 13.6 75 2.6 ENE 11 13 6 7 1010.9 1010.9 0.0
29/03:00am 18.1 17.2 14.8 81 1.9 E 13 15 7 8 1010.9 1010.9 0.0
29/02:30am 18.2 18.1 13.9 76 2.5 ENE 7 9 4 5 1010.8 1010.8 0.0
29/02:00am 17.9 17.8 13.4 75 2.5 SE 6 7 3 4 1011.0 1011.0 0.0
29/01:30am 18.1 16.7 13.4 74 2.7 SSE 13 13 7 7 1011.2 1011.2 0.0
29/01:00am 18.9 17.6 13.7 72 3.0 S 13 15 7 8 1011.3 1011.3 0.0
29/12:30am 19.1 18.4 14.4 74 2.7 SSE 11 15 6 8 1011.5 1011.5 0.0
29/12:00am 19.5 18.9 14.5 73 2.9 SSE 11 11 6 6 1011.6 1011.6 0.0
 
Date/Time
WST
Temp
°C
App
Temp
°C
Dew
Point
°C
Rel
Hum
%
Delta-T
°C
Wind Press
QNH
hPa
Press
MSL
hPa
Rain since
9am
mm
Dir  Spd
km/h
Gust
km/h
Spd
kts
Gust
kts
28/11:30pm 20.2 20.0 14.6 70 3.3 SSE 9 11 5 6 1012.0 1012.0 0.0
28/11:00pm 21.9 21.4 13.8 60 4.7 WSW 9 13 5 7 1012.4 1012.4 0.0
28/10:30pm 23.3 23.0 14.3 57 5.3 WSW 9 11 5 6 1012.6 1012.6 0.0
28/10:00pm 24.5 23.4 15.4 57 5.5 WNW 15 19 8 10 1012.3 1012.3 0.0
28/09:30pm 24.6 23.4 14.1 52 6.2 WNW 13 17 7 9 1012.5 1012.5 0.0
28/09:00pm 24.8 22.9 14.3 52 6.2 W 17 20 9 11 1012.4 1012.4 0.0
28/08:30pm 25.2 22.9 14.6 51 6.3 W 20 24 11 13 1012.2 1012.2 0.0
28/08:00pm 25.3 23.2 15.3 54 6.0 W 20 24 11 13 1012.0 1012.0 0.0
28/07:30pm 25.4 23.6 16.0 56 5.7 W 20 24 11 13 1011.8 1011.8 0.0
28/07:00pm 25.5 23.7 16.1 56 5.8 W 20 24 11 13 1011.5 1011.5 0.0
28/06:30pm 25.4 24.5 16.8 59 5.3 WNW 17 19 9 10 1011.2 1011.2 0.0
28/06:00pm 25.9 24.7 17.0 58 5.5 WNW 19 24 10 13 1011.0 1011.0 0.0
28/05:30pm 27.2 26.0 17.1 54 6.3 NW 19 24 10 13 1010.7 1010.7 0.0
28/05:00pm 28.0 26.7 16.9 51 6.9 NW 19 24 10 13 1010.5 1010.5 0.0
28/04:30pm 28.0 26.3 16.3 49 7.2 NNW 20 28 11 15 1010.1 1010.1 0.0
28/04:00pm 28.6 27.0 16.5 48 7.5 NW 20 28 11 15 1009.8 1009.8 0.0
28/03:30pm 29.7 28.4 17.2 47 7.9 NNW 20 28 11 15 1009.7 1009.7 0.0
28/03:00pm 30.3 28.7 16.0 42 8.9 N 19 24 10 13 1009.8 1009.8 0.0
28/02:30pm 30.3 26.7 11.8 32 10.8 NNE 22 28 12 15 1010.0 1010.0 0.0
28/02:00pm 30.6 27.0 13.0 34 10.5 NE 24 28 13 15 1010.3 1010.3 0.0
28/01:30pm 30.2 26.2 11.7 32 10.8 NE 24 32 13 17 1010.7 1010.7 0.0
28/01:00pm 29.4 25.2 12.3 34 10.0 NE 26 33 14 18 1011.2 1011.2 0.0
28/12:30pm 29.3 25.6 12.7 36 9.8 NNE 24 32 13 17 1011.6 1011.6 0.0
28/12:00pm 29.7 26.7 14.7 40 9.1 NNE 24 30 13 16 1012.0 1012.0 0.0
28/11:30am 29.5 26.1 11.1 32 10.6 NE 20 26 11 14 1012.3 1012.3 0.0
28/11:00am 29.0 25.4 10.6 32 10.5 NE 20 32 11 17 1012.5 1012.5 0.0
28/10:30am 31.0 25.7 3.1 17 14.1 ENE 20 26 11 14 1012.8 1012.8 0.0
28/10:00am 29.8 24.5 2.1 17 13.7 ENE 19 24 10 13 1013.1 1013.1 0.0
28/09:30am 28.7 23.3 1.3 17 13.3 ESE 19 26 10 14 1013.1 1013.1 0.0

Other Formats:

Comma delimited format used in spreadsheet applications
http://www.bom.gov.au/fwo/IDW60801/IDW60801.95307.axf

JavaScript Object Notation format (JSON) in row-major order
http://www.bom.gov.au/fwo/IDW60801/IDW60801.95307.json